createdAt,value
2022-08-28T00:01:59.601Z,59.60
2022-08-28T00:07:02.989Z,59.55
2022-08-28T00:12:06.882Z,59.61
2022-08-28T00:17:09.860Z,59.57
2022-08-28T00:22:12.832Z,59.64
2022-08-28T00:27:37.063Z,59.54
2022-08-28T00:32:39.918Z,59.58
2022-08-28T00:37:42.805Z,59.55
2022-08-28T00:42:47.376Z,59.64
2022-08-28T00:47:51.248Z,59.61
2022-08-28T00:53:00.150Z,59.78
2022-08-28T00:58:05.717Z,60.04
2022-08-28T01:03:09.111Z,60.28
2022-08-28T01:08:13.062Z,60.46
2022-08-28T01:13:18.233Z,60.66
2022-08-28T01:18:22.589Z,60.87
2022-08-28T01:23:41.969Z,61.18
2022-08-28T01:28:45.782Z,61.50
2022-08-28T01:33:48.890Z,61.42
2022-08-28T01:38:59.153Z,61.63
2022-08-28T01:44:02.264Z,61.66
2022-08-28T01:49:05.176Z,61.63
2022-08-28T01:54:09.963Z,61.89
2022-08-28T01:59:14.545Z,62.04
2022-08-28T02:04:17.529Z,62.32
2022-08-28T02:09:20.593Z,62.44
2022-08-28T02:14:23.702Z,62.36
2022-08-28T02:19:26.556Z,62.50
2022-08-28T02:24:29.611Z,62.54
2022-08-28T02:29:32.776Z,62.71
2022-08-28T02:34:36.429Z,62.63
2022-08-28T02:39:40.792Z,62.60
2022-08-28T02:44:43.804Z,62.72
2022-08-28T02:49:46.715Z,62.84
2022-08-28T02:54:49.639Z,62.87
2022-08-28T02:59:52.497Z,62.92
2022-08-28T03:04:56.289Z,63.06
2022-08-28T03:09:59.273Z,63.12
2022-08-28T03:15:04.879Z,63.09
2022-08-28T03:20:09.956Z,63.20
2022-08-28T03:25:12.995Z,63.28
2022-08-28T03:30:16.143Z,63.31
2022-08-28T03:35:20.345Z,63.40
2022-08-28T03:40:23.428Z,63.49
2022-08-28T03:45:26.504Z,63.47
2022-08-28T03:50:29.543Z,63.48
2022-08-28T03:55:32.685Z,63.49
2022-08-28T04:00:35.639Z,63.58
2022-08-28T04:05:43.304Z,63.91
2022-08-28T04:10:47.715Z,64.03
2022-08-28T04:16:10.603Z,63.76
2022-08-28T04:21:18.079Z,63.67
2022-08-28T04:26:23.921Z,63.59
2022-08-28T04:31:31.759Z,63.63
2022-08-28T04:36:35.777Z,63.30
2022-08-28T04:41:39.234Z,63.28
2022-08-28T04:46:42.302Z,63.31
2022-08-28T04:51:45.359Z,63.52
2022-08-28T04:56:50.142Z,63.62
2022-08-28T05:01:53.963Z,63.47
2022-08-28T05:06:56.977Z,63.36
2022-08-28T05:12:03.802Z,63.35
2022-08-28T05:17:06.835Z,63.38
2022-08-28T05:22:10.756Z,63.58
2022-08-28T05:27:13.986Z,63.58
2022-08-28T05:32:17.003Z,63.56
2022-08-28T05:37:19.889Z,63.59
2022-08-28T05:42:22.952Z,63.30
2022-08-28T05:47:32.832Z,63.01
2022-08-28T05:52:35.864Z,62.77
2022-08-28T05:57:40.202Z,62.49
2022-08-28T06:02:44.532Z,62.34
2022-08-28T06:07:47.617Z,62.30
2022-08-28T06:12:50.936Z,61.99
2022-08-28T06:17:53.949Z,61.91
2022-08-28T06:22:56.954Z,61.83
2022-08-28T06:27:59.813Z,61.68
2022-08-28T06:33:05.427Z,61.61
2022-08-28T06:38:09.242Z,61.68
2022-08-28T06:43:13.395Z,61.48
2022-08-28T06:48:17.967Z,61.30
2022-08-28T06:53:24.907Z,61.15
2022-08-28T06:58:28.363Z,61.15
2022-08-28T07:03:31.981Z,61.07
2022-08-28T07:08:36.487Z,61.17
2022-08-28T07:13:41.139Z,61.27
2022-08-28T07:18:45.649Z,61.42
2022-08-28T07:23:48.929Z,61.51
2022-08-28T07:28:59.524Z,61.54
2022-08-28T07:34:15.903Z,61.50
2022-08-28T07:39:19.654Z,61.55
2022-08-28T07:44:41.417Z,61.42
2022-08-28T07:49:45.271Z,61.30
2022-08-28T07:54:49.192Z,61.20
2022-08-28T07:59:52.517Z,61.02
2022-08-28T08:04:55.913Z,60.80
2022-08-28T08:09:58.909Z,60.30
2022-08-28T08:15:01.970Z,60.14
2022-08-28T08:20:06.644Z,59.73
2022-08-28T08:25:09.970Z,59.60
2022-08-28T08:30:13.275Z,59.36
2022-08-28T08:35:17.374Z,59.02
2022-08-28T08:40:20.793Z,58.57
2022-08-28T08:45:26.779Z,58.54
2022-08-28T08:50:35.863Z,58.38
2022-08-28T08:55:50.934Z,57.97
2022-08-28T09:01:01.905Z,57.46
2022-08-28T09:06:07.000Z,57.32
2022-08-28T09:11:28.420Z,57.25
2022-08-28T09:16:44.427Z,57.09
2022-08-28T09:21:48.863Z,56.61
2022-08-28T09:27:04.264Z,56.59
2022-08-28T09:32:39.397Z,56.28
2022-08-28T09:37:44.092Z,56.16
2022-08-28T09:43:25.575Z,55.91
2022-08-28T09:48:41.347Z,55.85
2022-08-28T09:53:53.723Z,55.69
2022-08-28T09:59:01.408Z,55.48
2022-08-28T10:04:38.661Z,55.40
2022-08-28T10:09:56.552Z,54.97
2022-08-28T10:15:18.161Z,54.76
2022-08-28T10:20:40.609Z,54.54
2022-08-28T10:25:59.057Z,54.38
2022-08-28T10:31:09.903Z,54.35
2022-08-28T10:36:33.342Z,54.26
2022-08-28T10:41:51.193Z,54.30
2022-08-28T10:46:57.533Z,54.07
2022-08-28T10:52:09.103Z,54.04
2022-08-28T10:57:25.690Z,53.72
2022-08-28T11:02:30.540Z,53.64
2022-08-28T11:07:51.129Z,53.73
2022-08-28T11:12:54.256Z,53.70
2022-08-28T11:18:16.767Z,53.57
2022-08-28T11:23:30.193Z,53.54
2022-08-28T11:28:35.768Z,53.57
2022-08-28T11:33:53.173Z,53.69
2022-08-28T11:38:56.197Z,53.61
2022-08-28T11:44:09.155Z,53.65
2022-08-28T11:49:24.676Z,53.62
2022-08-28T11:54:38.034Z,53.72
2022-08-28T11:59:53.735Z,53.72
2022-08-28T12:04:57.465Z,53.69
2022-08-28T12:10:04.376Z,53.57
2022-08-28T12:15:09.528Z,53.45
2022-08-28T12:20:21.400Z,53.11
2022-08-28T12:25:42.189Z,52.72
2022-08-28T12:31:06.758Z,52.44
2022-08-28T12:36:16.992Z,52.25
2022-08-28T12:41:21.865Z,52.10
2022-08-28T12:46:30.099Z,52.00
2022-08-28T12:51:36.004Z,51.78
2022-08-28T12:56:39.195Z,51.74
2022-08-28T13:01:42.798Z,51.61
2022-08-28T13:06:45.922Z,51.94
2022-08-28T13:11:51.639Z,51.78
2022-08-28T13:16:55.060Z,51.11
2022-08-28T13:22:02.219Z,50.76
2022-08-28T13:27:07.937Z,50.80
2022-08-28T13:32:17.591Z,50.35
2022-08-28T13:37:44.242Z,50.24
2022-08-28T13:42:47.941Z,49.71
2022-08-28T13:47:51.597Z,49.31
2022-08-28T13:52:55.617Z,49.13
2022-08-28T13:57:58.543Z,48.98
2022-08-28T14:03:20.241Z,48.86
2022-08-28T14:08:24.171Z,48.06
2022-08-28T14:13:27.983Z,47.36
2022-08-28T14:18:30.944Z,47.57
2022-08-28T14:23:34.329Z,47.43
2022-08-28T14:28:37.329Z,47.64
2022-08-28T14:33:40.309Z,47.73
2022-08-28T14:38:45.938Z,47.57
2022-08-28T14:43:49.782Z,47.99
2022-08-28T14:48:52.645Z,48.38
2022-08-28T14:53:55.627Z,48.87
2022-08-28T14:59:01.096Z,49.29
2022-08-28T15:04:07.004Z,49.57
2022-08-28T15:09:11.709Z,49.95
2022-08-28T15:14:14.614Z,50.30
2022-08-28T15:19:18.181Z,50.61
2022-08-28T15:24:24.844Z,50.09
2022-08-28T15:29:29.240Z,50.07
2022-08-28T15:34:32.490Z,50.19
2022-08-28T15:39:54.299Z,50.41
2022-08-28T15:44:57.656Z,50.91
2022-08-28T15:50:00.880Z,51.27
2022-08-28T15:55:06.372Z,51.87
2022-08-28T16:00:10.606Z,52.59
2022-08-28T16:05:13.821Z,53.26
2022-08-28T16:10:18.387Z,53.95
2022-08-28T16:15:21.739Z,54.44
2022-08-28T16:20:25.378Z,55.07
2022-08-28T16:25:28.436Z,55.61
2022-08-28T16:30:34.050Z,56.05
2022-08-28T16:35:49.286Z,56.69
2022-08-28T16:40:53.296Z,57.16
2022-08-28T16:45:56.492Z,57.52
2022-08-28T16:50:59.691Z,58.05
2022-08-28T16:56:03.723Z,58.41
2022-08-28T17:01:07.525Z,58.58
2022-08-28T17:06:19.847Z,58.74
2022-08-28T17:11:24.554Z,58.88
2022-08-28T17:16:31.553Z,58.82
2022-08-28T17:21:53.084Z,58.74
2022-08-28T17:26:55.949Z,58.74
2022-08-28T17:31:59.310Z,59.01
2022-08-28T17:37:03.550Z,59.03
2022-08-28T17:42:06.886Z,59.22
2022-08-28T17:47:09.947Z,59.36
2022-08-28T17:52:14.048Z,59.22
2022-08-28T17:57:17.573Z,59.25
2022-08-28T18:02:20.700Z,59.29
2022-08-28T18:07:23.742Z,59.56
2022-08-28T18:12:27.022Z,59.49
2022-08-28T18:17:30.080Z,59.42
2022-08-28T18:22:33.155Z,59.42
2022-08-28T18:27:36.688Z,59.58
2022-08-28T18:32:40.410Z,59.69
2022-08-28T18:37:44.148Z,59.78
2022-08-28T18:42:47.094Z,59.80
2022-08-28T18:47:50.351Z,59.98
2022-08-28T18:52:54.892Z,60.17
2022-08-28T18:57:59.594Z,60.08
2022-08-28T19:03:04.095Z,59.97
2022-08-28T19:08:08.012Z,60.02
2022-08-28T19:13:10.971Z,59.90
2022-08-28T19:18:14.162Z,59.93
2022-08-28T19:23:18.005Z,60.19
2022-08-28T19:28:21.171Z,60.39
2022-08-28T19:33:24.845Z,60.59
2022-08-28T19:38:29.472Z,60.75
2022-08-28T19:43:44.386Z,60.93
2022-08-28T19:48:53.409Z,61.13
2022-08-28T19:53:58.940Z,61.32
2022-08-28T19:59:06.313Z,61.38
2022-08-28T20:04:09.872Z,61.44
2022-08-28T20:09:13.289Z,61.55
2022-08-28T20:14:18.411Z,61.77
2022-08-28T20:19:23.522Z,61.87
2022-08-28T20:24:26.497Z,62.00
2022-08-28T20:29:29.664Z,61.90
2022-08-28T20:34:32.791Z,61.94
2022-08-28T20:39:37.556Z,62.17
2022-08-28T20:44:40.736Z,62.35
2022-08-28T20:49:43.615Z,62.59
2022-08-28T20:54:46.771Z,62.58
2022-08-28T20:59:50.840Z,62.61
2022-08-28T21:04:58.100Z,62.69
2022-08-28T21:10:07.522Z,62.98
2022-08-28T21:15:12.841Z,63.11
2022-08-28T21:20:16.398Z,63.19
2022-08-28T21:25:21.925Z,63.34
2022-08-28T21:30:25.476Z,63.42
2022-08-28T21:35:33.088Z,63.51
2022-08-28T21:40:36.099Z,63.57
2022-08-28T21:45:39.134Z,63.62
2022-08-28T21:50:43.009Z,63.67
2022-08-28T21:55:53.281Z,63.70
2022-08-28T22:00:59.021Z,63.71
2022-08-28T22:06:02.034Z,63.97
2022-08-28T22:11:05.113Z,64.04
2022-08-28T22:16:08.832Z,64.07
2022-08-28T22:21:33.340Z,64.17
2022-08-28T22:26:36.642Z,64.26
2022-08-28T22:31:46.194Z,64.42
2022-08-28T22:36:49.421Z,64.34
2022-08-28T22:41:52.282Z,64.32
2022-08-28T22:46:55.366Z,64.49
2022-08-28T22:51:58.186Z,64.67
2022-08-28T22:57:01.286Z,64.63
2022-08-28T23:02:04.808Z,64.61
2022-08-28T23:07:07.843Z,64.46
2022-08-28T23:12:10.748Z,64.47
2022-08-28T23:17:13.597Z,64.51
2022-08-28T23:22:16.520Z,64.50
2022-08-28T23:27:35.757Z,64.55
2022-08-28T23:32:39.549Z,64.57
2022-08-28T23:37:48.679Z,64.67
2022-08-28T23:42:56.275Z,64.77
2022-08-28T23:47:59.421Z,64.62
2022-08-28T23:53:04.505Z,64.46
2022-08-28T23:58:08.193Z,64.41
